»·PEaware :: N74KW 0O2-1L1

N74KW :: 0O2-1L1

FLIGHT INFORMATION

Flight Status: Arrived
Operator: Privately registered:
United States
More flights under this callsign
Pilot: Charles C. (26995)
Aircraft: MCDONNELL-DOUGLAS SKYTRAIN C-47
(DC3)
More flights by this aircraft type
Origin: 0O2 Baker
United States
Destination: 1L1 Lincoln Co
United States
More flights between these airports :: More routes between these airports
Route: LAS
File this flight plan on PilotEdge
Remarks:
Altitude:
(Current/Filed)
10,500ft
Speed:
(Current/Filed)
150kts
Departed: 10-Aug-20 08:54 AM
Arrived: 10-Aug-20 10:05 AM
Distance/Time
Traveled:
170nm/1:11
Distance/Time
To Go:
Arrived

Flight Plot

Page will automatically refresh every two minutes.

Flight plan parsing failed; only flown route is shown


Map Options




Map Legend


Flown Route
Filed Route
Departure Airport
Arrival Airport
Navaid (VOR, NDB)
Fix

Horizontal Profiles

Position Reports

Time Latitude Longitude Heading Altitude Ground
Speed
10-Aug-20 08:51 35.287603 -116.081243 253 927ft 0kts
10-Aug-20 08:52 35.290284 -116.081955 171 926ft 12kts
10-Aug-20 08:53 35.282893 -116.080175 166 927ft 103kts
10-Aug-20 08:54 35.265228 -116.060454 61 1781ft 104kts
10-Aug-20 08:55 35.292736 -116.058811 350 2499ft 110kts
10-Aug-20 08:56 35.322182 -116.059444 7 3284ft 104kts
10-Aug-20 08:57 35.351142 -116.048770 12 3960ft 111kts
10-Aug-20 08:58 35.381347 -116.039900 13 4636ft 113kts
10-Aug-20 08:59 35.411467 -116.029883 23 5301ft 112kts
10-Aug-20 09:00 35.440235 -116.014072 25 5966ft 114kts
10-Aug-20 09:01 35.467575 -115.994522 38 6645ft 114kts
10-Aug-20 09:02 35.491464 -115.968858 44 7294ft 114kts
10-Aug-20 09:03 35.515809 -115.940806 44 7766ft 125kts
10-Aug-20 09:04 35.541094 -115.911876 44 8310ft 124kts
10-Aug-20 09:05 35.566525 -115.883084 44 8824ft 124kts
10-Aug-20 09:06 35.592188 -115.854322 43 9314ft 124kts
10-Aug-20 09:07 35.617915 -115.825736 43 9751ft 127kts
10-Aug-20 09:09 35.646575 -115.792702 43 9662ft 158kts
10-Aug-20 09:10 35.681085 -115.754300 43 9529ft 167kts
10-Aug-20 09:11 35.714375 -115.715590 48 9539ft 163kts
10-Aug-20 09:12 35.744116 -115.673808 51 9542ft 162kts
10-Aug-20 09:13 35.771788 -115.630097 55 9542ft 161kts
10-Aug-20 09:14 35.797287 -115.584614 57 9542ft 161kts
10-Aug-20 09:15 35.821943 -115.538932 57 9552ft 162kts
10-Aug-20 09:16 35.847348 -115.492716 57 9552ft 163kts
10-Aug-20 09:17 35.871337 -115.445062 60 9549ft 164kts
10-Aug-20 09:18 35.900769 -115.401588 50 9545ft 165kts
10-Aug-20 09:19 35.931322 -115.359169 50 9542ft 166kts
10-Aug-20 09:20 35.962814 -115.317026 48 9542ft 166kts
10-Aug-20 09:21 35.994996 -115.276022 48 9544ft 167kts
10-Aug-20 09:22 36.027322 -115.234863 50 9543ft 166kts
10-Aug-20 09:23 36.058126 -115.193176 49 9540ft 167kts
10-Aug-20 09:24 36.090078 -115.151539 34 9513ft 170kts
10-Aug-20 09:24 36.128618 -115.138955 18 9471ft 172kts
10-Aug-20 09:26 36.181818 -115.118750 22 9460ft 171kts
10-Aug-20 09:27 36.225636 -115.096511 26 9457ft 170kts
10-Aug-20 09:27 36.261525 -115.076440 26 9455ft 170kts
10-Aug-20 09:29 36.311676 -115.049486 22 9452ft 171kts
10-Aug-20 09:29 36.348470 -115.031917 22 9487ft 169kts
10-Aug-20 09:30 36.392726 -115.010892 22 9495ft 170kts
10-Aug-20 09:31 36.437726 -114.992461 19 9495ft 171kts
10-Aug-20 09:32 36.482720 -114.973313 22 9496ft 171kts
10-Aug-20 09:33 36.527112 -114.952561 22 9501ft 171kts
10-Aug-20 09:34 36.571795 -114.931792 22 9507ft 171kts
10-Aug-20 09:35 36.616250 -114.911272 21 9512ft 171kts
10-Aug-20 09:36 36.660988 -114.890710 21 9516ft 171kts
10-Aug-20 09:37 36.705772 -114.870657 19 9516ft 171kts
10-Aug-20 09:38 36.751102 -114.852011 19 9516ft 171kts
10-Aug-20 09:39 36.796546 -114.833421 19 9516ft 172kts
10-Aug-20 09:40 36.841890 -114.814533 21 9516ft 172kts
10-Aug-20 09:41 36.886759 -114.794314 20 9516ft 172kts
10-Aug-20 09:42 36.931776 -114.774131 20 9516ft 172kts
10-Aug-20 09:43 36.976807 -114.754054 20 9516ft 172kts
10-Aug-20 09:44 37.021941 -114.734063 20 9516ft 172kts
10-Aug-20 09:45 37.067202 -114.714102 20 9516ft 172kts
10-Aug-20 09:46 37.112394 -114.694302 20 9515ft 172kts
10-Aug-20 09:47 37.157522 -114.674630 19 9529ft 171kts
10-Aug-20 09:48 37.202443 -114.655175 19 9549ft 170kts
10-Aug-20 09:49 37.247334 -114.635865 19 9566ft 171kts
10-Aug-20 09:50 37.293066 -114.616247 19 9487ft 173kts
10-Aug-20 09:51 37.341717 -114.595448 19 9030ft 190kts
10-Aug-20 09:52 37.394541 -114.576645 11 8211ft 210kts
10-Aug-20 09:53 37.453553 -114.568807 4 7246ft 213kts
10-Aug-20 09:54 37.511425 -114.570504 356 6561ft 207kts
10-Aug-20 09:55 37.566609 -114.559122 30 5796ft 195kts
10-Aug-20 09:56 37.606764 -114.531363 50 5768ft 118kts
10-Aug-20 09:57 37.629087 -114.510687 16 5361ft 107kts
10-Aug-20 09:58 37.656487 -114.497898 33 5256ft 108kts
10-Aug-20 09:59 37.679731 -114.474310 34 5339ft 114kts
10-Aug-20 10:00 37.706787 -114.455890 16 5404ft 105kts
10-Aug-20 10:01 37.731717 -114.440475 43 5547ft 102kts
10-Aug-20 10:02 37.755307 -114.423731 5 5403ft 94kts
10-Aug-20 10:03 37.781340 -114.421153 1 4804ft 85kts
10-Aug-20 10:04 37.786748 -114.421579 243 4819ft 0kts
10-Aug-20 10:05 37.786713 -114.421638 203 4820ft 0kts
10-Aug-20 10:06 37.786713 -114.421638 203 4820ft 0kts
10-Aug-20 10:07 37.786713 -114.421638 203 4820ft 0kts

Navigation Log

Ident Type
Flight plan parsing failed, navigation log unavailable